Home PIREPS Pireps

Flight BEL866

  • Submitted By: Serge Morabito
  • Departure Airport: Bruxelles National (EBBR)
  • Arrival Airport: Napoli / Capodichino (LIRN)
  • Aircraft: A330-223 (OO-SFU)
  • Flight Time: 02.11
  • Date Submitted: 07/05/2017
  • Route: SOPOK UY863 ETENO Y863 UBIDU UL607 UTABA UM738 NATAG DCT ADOSA DCT ANC PES M736 ERIKA Z910 AKAMO
  • Status: Accepted
Flight Details
Gross Revenue:
(215 load / € 0.00 per unit
€ 0.00
Fuel Cost:
(9544 fuel used @ 0 / unit)
€ 0.00

Additional Log Information:

View Log

Aircraft Used in flight is A330 (v2.0r2) Brussels Airlines (OO-SFU)
12:56 Brakes are On
12:56 Brakes are Released
13:02 Brakes are On
13:02 Brakes are Released
13:04 Brakes are On
13:04 Brakes are Released
13:04 Brakes are On
13:04 Brakes are Released
13:08 You Took off @ 144 Knots and Flaps at Position 2
Departure Weather
EBBR 071050Z 33009KT 300V360 9000 BKN014 12/09 Q1018 BECMG NSWrn
13:08 You are Airborne and your Beacons are off
13:08 Landing Gear Up @ 151 Knots and 170 Feet
13:10 Below 10000 feet you are not allowed to go over 250 knots
13:12 Above FL100 you need to switch of the landing lights
13:17 You exceeded maximum bank angle
14:52 Landing Gear Down @ 162 Knots and 5460 Feet
14:58 You Landed @ 121 Knots and with -300 Vertical Speed
Arrival Weather
LIRN 071220Z 20010KT 160V240 9999 FEW040 21/11 Q1011 NOSIGrn
14:58 Brakes are On
14:59 Brakes are Released
15:02 Brakes are On
15:04 Brussels Bel-Track1.0.1.2

Route Map

Corporate About Us Our Team Vacancies Information Fleet Route Network Rules and Regulations Operations Flight Schedules Event Center Tours Partners IVAO Vatsim Acars dev FSCB

fb Users Online No pilots online!
0 Pilot(s) and 89 Guest(s) Online
CMS by phpVMS - Design by Crazycreatives.com - Copyright © 2019 - Brussels Airlines Virtual